sensor_id;sensor_type;location;lat;lon;timestamp;P1;durP1;ratioP1;P2;durP2;ratioP2
53036;SDS011;38924;52.134;4.666;2022-09-23T00:00:33;242.82;;;227.40;;
53036;SDS011;38924;52.134;4.666;2022-09-23T00:02:58;260.88;;;244.30;;
53036;SDS011;38924;52.134;4.666;2022-09-23T00:05:26;235.23;;;219.98;;
53036;SDS011;38924;52.134;4.666;2022-09-23T00:07:52;253.23;;;236.55;;
53036;SDS011;38924;52.134;4.666;2022-09-23T00:10:23;262.90;;;246.13;;
53036;SDS011;38924;52.134;4.666;2022-09-23T00:12:49;245.85;;;230.30;;
53036;SDS011;38924;52.134;4.666;2022-09-23T00:15:20;240.45;;;225.20;;
53036;SDS011;38924;52.134;4.666;2022-09-23T00:17:46;245.02;;;229.30;;
53036;SDS011;38924;52.134;4.666;2022-09-23T00:20:12;230.73;;;216.10;;
53036;SDS011;38924;52.134;4.666;2022-09-23T00:22:38;240.13;;;224.93;;
53036;SDS011;38924;52.134;4.666;2022-09-23T00:25:05;256.30;;;239.75;;
53036;SDS011;38924;52.134;4.666;2022-09-23T00:27:31;247.80;;;231.70;;
53036;SDS011;38924;52.134;4.666;2022-09-23T00:30:02;231.13;;;216.05;;
53036;SDS011;38924;52.134;4.666;2022-09-23T00:32:28;262.27;;;245.45;;
53036;SDS011;38924;52.134;4.666;2022-09-23T00:34:53;246.75;;;230.30;;
53036;SDS011;38924;52.134;4.666;2022-09-23T00:37:19;252.13;;;235.65;;
53036;SDS011;38924;52.134;4.666;2022-09-23T00:39:45;235.02;;;220.07;;
53036;SDS011;38924;52.134;4.666;2022-09-23T00:42:14;242.45;;;227.20;;
53036;SDS011;38924;52.134;4.666;2022-09-23T00:44:45;224.77;;;210.52;;
53036;SDS011;38924;52.134;4.666;2022-09-23T00:47:12;232.68;;;217.77;;
53036;SDS011;38924;52.134;4.666;2022-09-23T00:49:39;231.27;;;216.20;;
53036;SDS011;38924;52.134;4.666;2022-09-23T00:52:06;224.90;;;210.40;;
53036;SDS011;38924;52.134;4.666;2022-09-23T00:54:34;238.65;;;223.23;;
53036;SDS011;38924;52.134;4.666;2022-09-23T00:56:59;237.73;;;222.75;;
53036;SDS011;38924;52.134;4.666;2022-09-23T00:59:25;230.35;;;215.60;;
53036;SDS011;38924;52.134;4.666;2022-09-23T01:01:53;235.48;;;220.48;;
53036;SDS011;38924;52.134;4.666;2022-09-23T01:04:23;226.52;;;211.95;;
53036;SDS011;38924;52.134;4.666;2022-09-23T01:06:50;222.25;;;207.85;;
53036;SDS011;38924;52.134;4.666;2022-09-23T01:09:16;228.65;;;214.25;;
53036;SDS011;38924;52.134;4.666;2022-09-23T01:14:44;231.30;;;216.30;;
53036;SDS011;38924;52.134;4.666;2022-09-23T01:17:21;223.82;;;209.70;;
53036;SDS011;38924;52.134;4.666;2022-09-23T01:22:38;222.52;;;207.63;;
53036;SDS011;38924;52.134;4.666;2022-09-23T01:37:32;231.73;;;217.15;;
53036;SDS011;38924;52.134;4.666;2022-09-23T01:45:08;215.02;;;201.50;;
53036;SDS011;38924;52.134;4.666;2022-09-23T01:47:41;219.93;;;205.85;;
53036;SDS011;38924;52.134;4.666;2022-09-23T01:50:09;217.85;;;203.95;;
53036;SDS011;38924;52.134;4.666;2022-09-23T01:52:55;215.20;;;201.48;;
53036;SDS011;38924;52.134;4.666;2022-09-23T01:55:35;228.27;;;213.68;;
53036;SDS011;38924;52.134;4.666;2022-09-23T02:00:29;212.80;;;199.07;;
53036;SDS011;38924;52.134;4.666;2022-09-23T02:03:00;224.20;;;210.02;;
53036;SDS011;38924;52.134;4.666;2022-09-23T02:05:31;212.95;;;199.02;;
53036;SDS011;38924;52.134;4.666;2022-09-23T02:08:03;209.75;;;196.50;;
53036;SDS011;38924;52.134;4.666;2022-09-23T02:10:33;208.02;;;194.40;;
53036;SDS011;38924;52.134;4.666;2022-09-23T02:13:02;210.40;;;196.68;;
53036;SDS011;38924;52.134;4.666;2022-09-23T02:15:34;209.18;;;195.65;;
53036;SDS011;38924;52.134;4.666;2022-09-23T02:18:08;208.38;;;195.27;;
53036;SDS011;38924;52.134;4.666;2022-09-23T02:20:38;218.75;;;204.35;;
53036;SDS011;38924;52.134;4.666;2022-09-23T02:33:48;207.77;;;194.65;;
53036;SDS011;38924;52.134;4.666;2022-09-23T02:36:35;208.23;;;194.98;;
53036;SDS011;38924;52.134;4.666;2022-09-23T02:39:03;210.70;;;197.10;;
53036;SDS011;38924;52.134;4.666;2022-09-23T02:41:31;206.65;;;193.48;;
53036;SDS011;38924;52.134;4.666;2022-09-23T02:46:26;214.95;;;201.32;;
53036;SDS011;38924;52.134;4.666;2022-09-23T02:48:55;217.85;;;203.82;;
53036;SDS011;38924;52.134;4.666;2022-09-23T02:51:22;204.85;;;191.90;;
53036;SDS011;38924;52.134;4.666;2022-09-23T02:53:56;206.43;;;192.80;;
53036;SDS011;38924;52.134;4.666;2022-09-23T02:56:22;211.77;;;198.18;;
53036;SDS011;38924;52.134;4.666;2022-09-23T02:58:48;198.63;;;185.68;;
53036;SDS011;38924;52.134;4.666;2022-09-23T03:01:27;223.52;;;209.27;;
53036;SDS011;38924;52.134;4.666;2022-09-23T03:06:30;220.05;;;206.13;;
53036;SDS011;38924;52.134;4.666;2022-09-23T03:09:01;226.77;;;212.25;;
53036;SDS011;38924;52.134;4.666;2022-09-23T03:11:28;226.20;;;211.43;;
53036;SDS011;38924;52.134;4.666;2022-09-23T03:19:13;201.20;;;187.98;;
53036;SDS011;38924;52.134;4.666;2022-09-23T03:21:51;197.38;;;184.77;;
53036;SDS011;38924;52.134;4.666;2022-09-23T03:24:19;217.27;;;203.40;;
53036;SDS011;38924;52.134;4.666;2022-09-23T03:26:46;206.98;;;193.93;;
53036;SDS011;38924;52.134;4.666;2022-09-23T03:29:13;234.02;;;219.00;;
53036;SDS011;38924;52.134;4.666;2022-09-23T03:31:40;209.43;;;196.25;;
53036;SDS011;38924;52.134;4.666;2022-09-23T03:34:22;226.43;;;211.73;;
53036;SDS011;38924;52.134;4.666;2022-09-23T03:36:56;219.43;;;205.57;;
53036;SDS011;38924;52.134;4.666;2022-09-23T03:39:36;214.60;;;200.93;;
53036;SDS011;38924;52.134;4.666;2022-09-23T03:42:27;208.88;;;195.50;;
53036;SDS011;38924;52.134;4.666;2022-09-23T03:44:51;224.40;;;210.00;;
53036;SDS011;38924;52.134;4.666;2022-09-23T03:47:18;209.43;;;196.30;;
53036;SDS011;38924;52.134;4.666;2022-09-23T03:49:45;200.18;;;187.43;;
53036;SDS011;38924;52.134;4.666;2022-09-23T03:52:16;219.80;;;205.63;;
53036;SDS011;38924;52.134;4.666;2022-09-23T03:54:42;202.15;;;189.13;;
53036;SDS011;38924;52.134;4.666;2022-09-23T03:57:08;206.43;;;193.40;;
53036;SDS011;38924;52.134;4.666;2022-09-23T03:59:34;215.43;;;202.10;;
53036;SDS011;38924;52.134;4.666;2022-09-23T04:02:00;228.48;;;213.60;;
53036;SDS011;38924;52.134;4.666;2022-09-23T04:04:27;208.63;;;195.07;;
53036;SDS011;38924;52.134;4.666;2022-09-23T04:06:53;218.70;;;204.55;;
53036;SDS011;38924;52.134;4.666;2022-09-23T04:09:19;213.57;;;199.52;;
53036;SDS011;38924;52.134;4.666;2022-09-23T04:11:46;209.00;;;195.55;;
53036;SDS011;38924;52.134;4.666;2022-09-23T04:14:12;215.50;;;201.63;;
53036;SDS011;38924;52.134;4.666;2022-09-23T04:16:39;217.57;;;203.52;;
53036;SDS011;38924;52.134;4.666;2022-09-23T04:19:04;211.70;;;198.27;;
53036;SDS011;38924;52.134;4.666;2022-09-23T04:21:30;201.30;;;188.55;;
53036;SDS011;38924;52.134;4.666;2022-09-23T04:23:56;199.10;;;186.27;;
53036;SDS011;38924;52.134;4.666;2022-09-23T04:26:22;205.88;;;192.48;;
53036;SDS011;38924;52.134;4.666;2022-09-23T04:28:47;215.52;;;201.88;;
53036;SDS011;38924;52.134;4.666;2022-09-23T04:31:13;223.38;;;209.02;;
53036;SDS011;38924;52.134;4.666;2022-09-23T04:33:39;210.73;;;197.15;;
53036;SDS011;38924;52.134;4.666;2022-09-23T04:36:04;214.20;;;200.15;;
53036;SDS011;38924;52.134;4.666;2022-09-23T04:38:30;219.15;;;204.90;;
53036;SDS011;38924;52.134;4.666;2022-09-23T04:40:56;212.27;;;199.07;;
53036;SDS011;38924;52.134;4.666;2022-09-23T04:43:22;205.82;;;192.48;;
53036;SDS011;38924;52.134;4.666;2022-09-23T04:45:57;211.65;;;198.07;;
53036;SDS011;38924;52.134;4.666;2022-09-23T04:48:24;207.00;;;193.10;;
53036;SDS011;38924;52.134;4.666;2022-09-23T04:50:49;201.55;;;188.38;;
53036;SDS011;38924;52.134;4.666;2022-09-23T04:53:15;222.25;;;208.02;;
53036;SDS011;38924;52.134;4.666;2022-09-23T04:55:41;194.25;;;181.10;;
53036;SDS011;38924;52.134;4.666;2022-09-23T04:58:08;215.25;;;201.52;;
53036;SDS011;38924;52.134;4.666;2022-09-23T05:00:35;227.20;;;212.55;;
53036;SDS011;38924;52.134;4.666;2022-09-23T05:03:00;216.77;;;202.70;;
53036;SDS011;38924;52.134;4.666;2022-09-23T05:05:26;211.45;;;197.73;;
53036;SDS011;38924;52.134;4.666;2022-09-23T05:07:55;229.23;;;214.40;;
53036;SDS011;38924;52.134;4.666;2022-09-23T05:10:21;227.23;;;213.23;;
53036;SDS011;38924;52.134;4.666;2022-09-23T05:12:47;243.75;;;227.68;;
53036;SDS011;38924;52.134;4.666;2022-09-23T05:15:13;222.75;;;208.35;;
53036;SDS011;38924;52.134;4.666;2022-09-23T05:17:41;225.00;;;210.55;;
53036;SDS011;38924;52.134;4.666;2022-09-23T05:20:07;237.68;;;222.25;;
53036;SDS011;38924;52.134;4.666;2022-09-23T05:22:33;230.32;;;215.57;;
53036;SDS011;38924;52.134;4.666;2022-09-23T05:24:59;241.90;;;225.82;;
53036;SDS011;38924;52.134;4.666;2022-09-23T05:27:27;233.75;;;218.63;;
53036;SDS011;38924;52.134;4.666;2022-09-23T05:29:52;242.93;;;227.70;;
53036;SDS011;38924;52.134;4.666;2022-09-23T05:32:18;233.00;;;217.90;;
53036;SDS011;38924;52.134;4.666;2022-09-23T05:34:44;216.50;;;202.60;;
53036;SDS011;38924;52.134;4.666;2022-09-23T05:37:10;238.25;;;222.38;;
53036;SDS011;38924;52.134;4.666;2022-09-23T05:39:35;220.00;;;205.15;;
53036;SDS011;38924;52.134;4.666;2022-09-23T05:42:01;215.55;;;201.50;;
53036;SDS011;38924;52.134;4.666;2022-09-23T05:44:27;240.18;;;224.35;;
53036;SDS011;38924;52.134;4.666;2022-09-23T05:46:53;230.07;;;215.18;;
53036;SDS011;38924;52.134;4.666;2022-09-23T05:49:18;219.57;;;205.73;;
53036;SDS011;38924;52.134;4.666;2022-09-23T05:51:44;233.57;;;218.02;;
53036;SDS011;38924;52.134;4.666;2022-09-23T05:54:09;225.15;;;210.65;;
53036;SDS011;38924;52.134;4.666;2022-09-23T05:56:35;228.23;;;213.73;;
53036;SDS011;38924;52.134;4.666;2022-09-23T05:59:02;227.98;;;213.60;;
53036;SDS011;38924;52.134;4.666;2022-09-23T06:01:32;225.32;;;210.70;;
53036;SDS011;38924;52.134;4.666;2022-09-23T06:03:58;227.80;;;213.02;;
53036;SDS011;38924;52.134;4.666;2022-09-23T06:06:31;231.32;;;215.85;;
53036;SDS011;38924;52.134;4.666;2022-09-23T06:08:57;236.93;;;221.57;;
53036;SDS011;38924;52.134;4.666;2022-09-23T06:11:23;214.35;;;199.88;;
53036;SDS011;38924;52.134;4.666;2022-09-23T06:13:53;228.68;;;214.07;;
53036;SDS011;38924;52.134;4.666;2022-09-23T06:16:19;223.48;;;209.00;;
53036;SDS011;38924;52.134;4.666;2022-09-23T06:18:44;230.20;;;214.93;;
53036;SDS011;38924;52.134;4.666;2022-09-23T06:21:14;235.65;;;219.88;;
53036;SDS011;38924;52.134;4.666;2022-09-23T06:23:39;241.18;;;226.02;;
53036;SDS011;38924;52.134;4.666;2022-09-23T06:26:06;219.70;;;205.38;;
53036;SDS011;38924;52.134;4.666;2022-09-23T06:28:33;225.45;;;210.63;;
53036;SDS011;38924;52.134;4.666;2022-09-23T06:30:59;232.32;;;217.55;;
53036;SDS011;38924;52.134;4.666;2022-09-23T06:33:26;226.32;;;211.68;;
53036;SDS011;38924;52.134;4.666;2022-09-23T06:36:01;228.57;;;214.15;;
53036;SDS011;38924;52.134;4.666;2022-09-23T06:38:30;230.80;;;216.00;;
53036;SDS011;38924;52.134;4.666;2022-09-23T06:40:58;243.43;;;227.50;;
53036;SDS011;38924;52.134;4.666;2022-09-23T06:43:24;244.05;;;228.48;;
53036;SDS011;38924;52.134;4.666;2022-09-23T06:48:19;234.15;;;218.90;;
53036;SDS011;38924;52.134;4.666;2022-09-23T06:50:44;236.85;;;221.27;;
53036;SDS011;38924;52.134;4.666;2022-09-23T06:53:10;247.02;;;231.15;;
53036;SDS011;38924;52.134;4.666;2022-09-23T06:55:37;233.23;;;217.20;;
53036;SDS011;38924;52.134;4.666;2022-09-23T06:58:02;229.85;;;214.60;;
53036;SDS011;38924;52.134;4.666;2022-09-23T07:00:28;242.18;;;226.75;;
53036;SDS011;38924;52.134;4.666;2022-09-23T07:02:54;220.55;;;206.43;;
53036;SDS011;38924;52.134;4.666;2022-09-23T07:05:19;246.27;;;229.38;;
53036;SDS011;38924;52.134;4.666;2022-09-23T07:07:47;238.20;;;222.38;;
53036;SDS011;38924;52.134;4.666;2022-09-23T07:10:13;260.67;;;243.60;;
53036;SDS011;38924;52.134;4.666;2022-09-23T07:12:40;250.50;;;234.52;;
53036;SDS011;38924;52.134;4.666;2022-09-23T07:15:06;233.48;;;217.85;;
53036;SDS011;38924;52.134;4.666;2022-09-23T07:17:32;261.13;;;244.25;;
53036;SDS011;38924;52.134;4.666;2022-09-23T07:19:59;235.18;;;220.15;;
53036;SDS011;38924;52.134;4.666;2022-09-23T07:22:25;251.32;;;234.35;;
53036;SDS011;38924;52.134;4.666;2022-09-23T07:24:53;265.10;;;247.88;;
53036;SDS011;38924;52.134;4.666;2022-09-23T07:27:23;251.55;;;235.50;;
53036;SDS011;38924;52.134;4.666;2022-09-23T07:29:51;264.55;;;247.23;;
53036;SDS011;38924;52.134;4.666;2022-09-23T07:32:18;269.50;;;251.55;;
53036;SDS011;38924;52.134;4.666;2022-09-23T07:34:44;276.50;;;258.52;;
53036;SDS011;38924;52.134;4.666;2022-09-23T07:37:11;265.73;;;248.43;;
53036;SDS011;38924;52.134;4.666;2022-09-23T07:39:37;271.20;;;253.95;;
53036;SDS011;38924;52.134;4.666;2022-09-23T07:42:04;274.33;;;256.38;;
53036;SDS011;38924;52.134;4.666;2022-09-23T07:44:30;283.98;;;265.33;;
53036;SDS011;38924;52.134;4.666;2022-09-23T07:46:56;271.27;;;253.77;;
53036;SDS011;38924;52.134;4.666;2022-09-23T07:49:22;278.52;;;260.70;;
53036;SDS011;38924;52.134;4.666;2022-09-23T07:51:48;283.58;;;264.48;;
53036;SDS011;38924;52.134;4.666;2022-09-23T07:54:14;285.50;;;266.58;;
53036;SDS011;38924;52.134;4.666;2022-09-23T07:56:40;297.85;;;278.42;;
53036;SDS011;38924;52.134;4.666;2022-09-23T07:59:06;278.50;;;260.35;;
53036;SDS011;38924;52.134;4.666;2022-09-23T08:01:34;278.73;;;260.27;;
53036;SDS011;38924;52.134;4.666;2022-09-23T08:04:01;291.42;;;272.15;;
53036;SDS011;38924;52.134;4.666;2022-09-23T08:06:28;291.95;;;273.02;;
53036;SDS011;38924;52.134;4.666;2022-09-23T08:09:00;286.85;;;267.92;;
53036;SDS011;38924;52.134;4.666;2022-09-23T08:11:25;297.60;;;278.10;;
53036;SDS011;38924;52.134;4.666;2022-09-23T08:13:51;297.75;;;278.38;;
53036;SDS011;38924;52.134;4.666;2022-09-23T08:16:21;283.67;;;265.20;;
53036;SDS011;38924;52.134;4.666;2022-09-23T08:18:47;308.90;;;288.42;;
53036;SDS011;38924;52.134;4.666;2022-09-23T08:21:17;301.77;;;282.33;;
53036;SDS011;38924;52.134;4.666;2022-09-23T08:23:45;287.08;;;268.08;;
53036;SDS011;38924;52.134;4.666;2022-09-23T08:26:11;296.25;;;277.17;;
53036;SDS011;38924;52.134;4.666;2022-09-23T08:28:37;294.10;;;275.17;;
53036;SDS011;38924;52.134;4.666;2022-09-23T08:31:02;306.58;;;286.88;;
53036;SDS011;38924;52.134;4.666;2022-09-23T08:33:28;288.25;;;269.50;;
53036;SDS011;38924;52.134;4.666;2022-09-23T08:35:57;282.25;;;263.30;;
53036;SDS011;38924;52.134;4.666;2022-09-23T08:38:23;291.88;;;272.60;;
53036;SDS011;38924;52.134;4.666;2022-09-23T08:40:49;297.85;;;277.70;;
53036;SDS011;38924;52.134;4.666;2022-09-23T08:45:43;314.50;;;292.95;;
53036;SDS011;38924;52.134;4.666;2022-09-23T08:48:12;303.27;;;283.45;;
53036;SDS011;38924;52.134;4.666;2022-09-23T08:50:41;279.13;;;260.48;;
53036;SDS011;38924;52.134;4.666;2022-09-23T08:53:12;286.65;;;267.48;;
53036;SDS011;38924;52.134;4.666;2022-09-23T08:55:45;298.48;;;278.70;;
53036;SDS011;38924;52.134;4.666;2022-09-23T09:01:00;284.05;;;265.23;;
53036;SDS011;38924;52.134;4.666;2022-09-23T09:03:34;291.73;;;272.75;;
53036;SDS011;38924;52.134;4.666;2022-09-23T09:06:04;285.20;;;265.77;;
53036;SDS011;38924;52.134;4.666;2022-09-23T09:08:31;278.35;;;260.05;;
53036;SDS011;38924;52.134;4.666;2022-09-23T09:10:57;290.35;;;271.33;;
53036;SDS011;38924;52.134;4.666;2022-09-23T09:13:28;299.13;;;279.55;;
53036;SDS011;38924;52.134;4.666;2022-09-23T09:16:40;291.95;;;273.13;;
53036;SDS011;38924;52.134;4.666;2022-09-23T09:18:50;282.17;;;263.55;;
53036;SDS011;38924;52.134;4.666;2022-09-23T09:21:17;292.58;;;273.38;;
53036;SDS011;38924;52.134;4.666;2022-09-23T09:26:19;308.23;;;288.17;;
53036;SDS011;38924;52.134;4.666;2022-09-23T09:28:49;315.38;;;294.67;;
53036;SDS011;38924;52.134;4.666;2022-09-23T09:31:19;310.40;;;290.27;;
53036;SDS011;38924;52.134;4.666;2022-09-23T09:39:00;312.77;;;292.45;;
53036;SDS011;38924;52.134;4.666;2022-09-23T09:41:26;303.30;;;282.90;;
53036;SDS011;38924;52.134;4.666;2022-09-23T09:43:56;319.30;;;298.45;;
53036;SDS011;38924;52.134;4.666;2022-09-23T09:49:13;312.65;;;292.08;;
53036;SDS011;38924;52.134;4.666;2022-09-23T09:51:46;307.58;;;287.60;;
53036;SDS011;38924;52.134;4.666;2022-09-23T09:54:16;289.85;;;270.63;;
53036;SDS011;38924;52.134;4.666;2022-09-23T09:56:47;317.00;;;295.08;;
53036;SDS011;38924;52.134;4.666;2022-09-23T09:59:18;336.05;;;313.60;;
53036;SDS011;38924;52.134;4.666;2022-09-23T10:01:49;315.95;;;294.83;;
53036;SDS011;38924;52.134;4.666;2022-09-23T10:04:34;324.80;;;304.17;;
53036;SDS011;38924;52.134;4.666;2022-09-23T10:09:31;313.15;;;292.75;;
53036;SDS011;38924;52.134;4.666;2022-09-23T10:12:17;334.10;;;311.92;;
53036;SDS011;38924;52.134;4.666;2022-09-23T10:14:43;328.30;;;306.35;;
53036;SDS011;38924;52.134;4.666;2022-09-23T10:17:13;325.60;;;304.33;;
53036;SDS011;38924;52.134;4.666;2022-09-23T10:19:43;329.95;;;308.50;;
53036;SDS011;38924;52.134;4.666;2022-09-23T10:22:20;376.70;;;351.70;;
53036;SDS011;38924;52.134;4.666;2022-09-23T10:24:47;351.85;;;327.67;;
53036;SDS011;38924;52.134;4.666;2022-09-23T10:27:13;335.40;;;313.05;;
53036;SDS011;38924;52.134;4.666;2022-09-23T10:29:47;374.52;;;348.73;;
53036;SDS011;38924;52.134;4.666;2022-09-23T10:34:54;341.65;;;317.95;;
53036;SDS011;38924;52.134;4.666;2022-09-23T10:37:23;358.75;;;334.10;;
53036;SDS011;38924;52.134;4.666;2022-09-23T10:39:50;377.63;;;351.05;;
53036;SDS011;38924;52.134;4.666;2022-09-23T10:45:23;394.70;;;367.58;;
53036;SDS011;38924;52.134;4.666;2022-09-23T10:48:21;354.52;;;330.13;;
53036;SDS011;38924;52.134;4.666;2022-09-23T10:50:50;358.98;;;334.05;;
53036;SDS011;38924;52.134;4.666;2022-09-23T10:55:56;388.08;;;361.83;;
53036;SDS011;38924;52.134;4.666;2022-09-23T11:06:17;340.75;;;317.95;;
53036;SDS011;38924;52.134;4.666;2022-09-23T11:13:41;370.38;;;345.80;;
53036;SDS011;38924;52.134;4.666;2022-09-23T11:16:15;353.13;;;329.77;;
53036;SDS011;38924;52.134;4.666;2022-09-23T11:21:14;348.48;;;324.42;;
53036;SDS011;38924;52.134;4.666;2022-09-23T11:36:42;334.42;;;311.63;;
53036;SDS011;38924;52.134;4.666;2022-09-23T11:39:11;386.42;;;359.77;;
53036;SDS011;38924;52.134;4.666;2022-09-23T11:41:42;416.35;;;387.77;;
53036;SDS011;38924;52.134;4.666;2022-09-23T11:46:38;381.02;;;353.48;;
53036;SDS011;38924;52.134;4.666;2022-09-23T11:49:11;396.92;;;370.65;;
53036;SDS011;38924;52.134;4.666;2022-09-23T11:51:47;376.73;;;350.35;;
53036;SDS011;38924;52.134;4.666;2022-09-23T11:54:19;366.65;;;341.27;;
53036;SDS011;38924;52.134;4.666;2022-09-23T11:56:50;372.98;;;347.90;;
53036;SDS011;38924;52.134;4.666;2022-09-23T11:59:26;363.98;;;339.08;;
53036;SDS011;38924;52.134;4.666;2022-09-23T12:02:00;357.38;;;332.65;;
53036;SDS011;38924;52.134;4.666;2022-09-23T12:04:28;361.67;;;337.33;;
53036;SDS011;38924;52.134;4.666;2022-09-23T12:06:58;362.27;;;337.83;;
53036;SDS011;38924;52.134;4.666;2022-09-23T12:15:23;350.95;;;327.85;;
53036;SDS011;38924;52.134;4.666;2022-09-23T12:18:03;367.05;;;341.38;;
53036;SDS011;38924;52.134;4.666;2022-09-23T12:20:40;420.30;;;390.90;;
53036;SDS011;38924;52.134;4.666;2022-09-23T12:23:14;381.10;;;355.13;;
53036;SDS011;38924;52.134;4.666;2022-09-23T12:25:42;406.23;;;378.17;;
53036;SDS011;38924;52.134;4.666;2022-09-23T12:28:18;442.77;;;411.48;;
53036;SDS011;38924;52.134;4.666;2022-09-23T12:30:48;424.05;;;394.25;;
53036;SDS011;38924;52.134;4.666;2022-09-23T12:35:50;514.08;;;477.08;;
53036;SDS011;38924;52.134;4.666;2022-09-23T12:38:24;534.15;;;495.17;;
53036;SDS011;38924;52.134;4.666;2022-09-23T12:40:51;448.45;;;416.63;;
53036;SDS011;38924;52.134;4.666;2022-09-23T12:43:33;509.73;;;472.67;;
53036;SDS011;38924;52.134;4.666;2022-09-23T12:46:15;376.25;;;349.90;;
53036;SDS011;38924;52.134;4.666;2022-09-23T12:48:42;433.05;;;402.27;;
53036;SDS011;38924;52.134;4.666;2022-09-23T12:51:15;449.55;;;417.45;;
53036;SDS011;38924;52.134;4.666;2022-09-23T13:01:22;423.05;;;393.33;;
53036;SDS011;38924;52.134;4.666;2022-09-23T13:03:55;469.33;;;436.65;;
53036;SDS011;38924;52.134;4.666;2022-09-23T13:06:57;430.48;;;400.42;;
53036;SDS011;38924;52.134;4.666;2022-09-23T13:09:30;517.17;;;479.50;;
53036;SDS011;38924;52.134;4.666;2022-09-23T13:11:57;487.55;;;452.50;;
53036;SDS011;38924;52.134;4.666;2022-09-23T13:14:24;523.03;;;484.95;;
53036;SDS011;38924;52.134;4.666;2022-09-23T13:16:50;522.92;;;484.27;;
53036;SDS011;38924;52.134;4.666;2022-09-23T13:26:54;455.67;;;423.92;;
53036;SDS011;38924;52.134;4.666;2022-09-23T13:29:22;429.10;;;399.20;;
53036;SDS011;38924;52.134;4.666;2022-09-23T13:31:50;482.08;;;447.75;;
53036;SDS011;38924;52.134;4.666;2022-09-23T13:34:18;453.85;;;421.70;;
53036;SDS011;38924;52.134;4.666;2022-09-23T13:36:45;465.77;;;432.88;;
53036;SDS011;38924;52.134;4.666;2022-09-23T13:39:15;507.73;;;471.35;;
53036;SDS011;38924;52.134;4.666;2022-09-23T13:41:41;401.60;;;373.50;;
53036;SDS011;38924;52.134;4.666;2022-09-23T13:44:12;461.52;;;428.75;;
53036;SDS011;38924;52.134;4.666;2022-09-23T13:46:40;376.73;;;350.92;;
53036;SDS011;38924;52.134;4.666;2022-09-23T13:51:55;439.75;;;409.45;;
53036;SDS011;38924;52.134;4.666;2022-09-23T13:55:03;420.17;;;391.30;;
53036;SDS011;38924;52.134;4.666;2022-09-23T14:02:42;406.20;;;378.73;;
53036;SDS011;38924;52.134;4.666;2022-09-23T14:05:11;389.10;;;362.92;;
53036;SDS011;38924;52.134;4.666;2022-09-23T14:07:38;398.77;;;370.80;;
53036;SDS011;38924;52.134;4.666;2022-09-23T14:10:04;416.45;;;388.13;;
53036;SDS011;38924;52.134;4.666;2022-09-23T14:12:30;382.42;;;356.13;;
53036;SDS011;38924;52.134;4.666;2022-09-23T14:14:56;424.70;;;395.52;;
53036;SDS011;38924;52.134;4.666;2022-09-23T14:17:22;364.05;;;339.52;;
53036;SDS011;38924;52.134;4.666;2022-09-23T14:19:48;393.00;;;366.63;;
53036;SDS011;38924;52.134;4.666;2022-09-23T14:22:21;384.80;;;359.17;;
53036;SDS011;38924;52.134;4.666;2022-09-23T14:24:47;403.50;;;375.70;;
53036;SDS011;38924;52.134;4.666;2022-09-23T14:27:14;367.63;;;343.20;;
53036;SDS011;38924;52.134;4.666;2022-09-23T14:29:41;349.05;;;325.70;;
53036;SDS011;38924;52.134;4.666;2022-09-23T14:32:11;319.55;;;298.38;;
53036;SDS011;38924;52.134;4.666;2022-09-23T14:34:42;342.27;;;319.67;;
53036;SDS011;38924;52.134;4.666;2022-09-23T14:37:14;361.70;;;338.27;;
53036;SDS011;38924;52.134;4.666;2022-09-23T14:40:03;318.65;;;297.52;;
53036;SDS011;38924;52.134;4.666;2022-09-23T14:42:30;357.30;;;333.98;;
53036;SDS011;38924;52.134;4.666;2022-09-23T14:45:00;312.42;;;292.45;;
53036;SDS011;38924;52.134;4.666;2022-09-23T14:47:26;353.52;;;330.55;;
53036;SDS011;38924;52.134;4.666;2022-09-23T14:49:52;347.02;;;324.05;;
53036;SDS011;38924;52.134;4.666;2022-09-23T14:52:37;330.48;;;309.30;;
53036;SDS011;38924;52.134;4.666;2022-09-23T14:55:02;327.58;;;305.83;;
53036;SDS011;38924;52.134;4.666;2022-09-23T14:57:31;302.35;;;282.75;;
53036;SDS011;38924;52.134;4.666;2022-09-23T15:02:38;329.55;;;307.55;;
53036;SDS011;38924;52.134;4.666;2022-09-23T15:05:07;303.20;;;283.65;;
53036;SDS011;38924;52.134;4.666;2022-09-23T15:07:35;310.90;;;290.80;;
53036;SDS011;38924;52.134;4.666;2022-09-23T15:10:02;321.20;;;300.63;;
53036;SDS011;38924;52.134;4.666;2022-09-23T15:12:29;321.05;;;300.00;;
53036;SDS011;38924;52.134;4.666;2022-09-23T15:14:54;313.98;;;293.77;;
53036;SDS011;38924;52.134;4.666;2022-09-23T15:19:55;306.38;;;286.65;;
53036;SDS011;38924;52.134;4.666;2022-09-23T15:22:22;317.40;;;296.55;;
53036;SDS011;38924;52.134;4.666;2022-09-23T15:24:49;301.20;;;282.38;;
53036;SDS011;38924;52.134;4.666;2022-09-23T15:29:53;278.08;;;259.95;;
53036;SDS011;38924;52.134;4.666;2022-09-23T15:32:19;298.10;;;279.10;;
53036;SDS011;38924;52.134;4.666;2022-09-23T15:34:47;273.73;;;256.25;;
53036;SDS011;38924;52.134;4.666;2022-09-23T15:37:12;286.08;;;267.25;;
53036;SDS011;38924;52.134;4.666;2022-09-23T15:39:38;298.58;;;278.80;;
53036;SDS011;38924;52.134;4.666;2022-09-23T15:42:04;290.70;;;271.65;;
53036;SDS011;38924;52.134;4.666;2022-09-23T15:44:31;297.05;;;277.95;;
53036;SDS011;38924;52.134;4.666;2022-09-23T15:47:00;283.08;;;265.02;;
53036;SDS011;38924;52.134;4.666;2022-09-23T15:51:51;280.65;;;262.25;;
53036;SDS011;38924;52.134;4.666;2022-09-23T15:54:17;287.27;;;268.33;;
53036;SDS011;38924;52.134;4.666;2022-09-23T15:56:44;285.27;;;266.70;;
53036;SDS011;38924;52.134;4.666;2022-09-23T15:59:10;278.35;;;260.90;;
53036;SDS011;38924;52.134;4.666;2022-09-23T16:01:36;262.63;;;244.80;;
53036;SDS011;38924;52.134;4.666;2022-09-23T16:04:02;272.77;;;255.05;;
53036;SDS011;38924;52.134;4.666;2022-09-23T16:06:29;229.32;;;214.02;;
53036;SDS011;38924;52.134;4.666;2022-09-23T16:08:54;261.33;;;244.18;;
53036;SDS011;38924;52.134;4.666;2022-09-23T16:11:21;251.40;;;235.32;;
53036;SDS011;38924;52.134;4.666;2022-09-23T16:13:51;251.98;;;235.35;;
53036;SDS011;38924;52.134;4.666;2022-09-23T16:16:17;261.98;;;245.18;;
53036;SDS011;38924;52.134;4.666;2022-09-23T16:18:45;256.95;;;239.90;;
53036;SDS011;38924;52.134;4.666;2022-09-23T16:21:13;231.95;;;217.02;;
53036;SDS011;38924;52.134;4.666;2022-09-23T16:23:40;256.58;;;240.13;;
53036;SDS011;38924;52.134;4.666;2022-09-23T16:26:13;237.07;;;221.88;;
53036;SDS011;38924;52.134;4.666;2022-09-23T16:28:40;252.80;;;236.43;;
53036;SDS011;38924;52.134;4.666;2022-09-23T16:31:06;235.80;;;220.98;;
53036;SDS011;38924;52.134;4.666;2022-09-23T16:33:31;247.02;;;231.63;;